createdAt,value
2022-09-20T00:00:49.696Z,31.60
2022-09-20T00:02:35.116Z,29.03
2022-09-20T00:04:08.051Z,30.27
2022-09-20T00:05:44.488Z,32.13
2022-09-20T00:07:16.712Z,33.07
2022-09-20T00:08:49.740Z,29.53
2022-09-20T00:10:24.559Z,29.73
2022-09-20T00:11:56.894Z,33.60
2022-09-20T00:13:30.531Z,33.40
2022-09-20T00:15:02.792Z,29.37
2022-09-20T00:16:40.587Z,31.00
2022-09-20T00:18:13.777Z,36.47
2022-09-20T00:19:45.888Z,27.80
2022-09-20T00:21:21.310Z,28.70
2022-09-20T00:22:53.542Z,32.53
2022-09-20T00:24:26.372Z,32.50
2022-09-20T00:26:01.694Z,30.03
2022-09-20T00:27:34.176Z,30.43
2022-09-20T00:29:06.586Z,30.50
2022-09-20T00:30:39.562Z,32.40
2022-09-20T00:32:11.822Z,30.50
2022-09-20T00:34:07.792Z,34.07
2022-09-20T00:35:44.480Z,31.57
2022-09-20T00:37:16.724Z,31.17
2022-09-20T00:38:49.016Z,31.40
2022-09-20T00:40:23.873Z,29.67
2022-09-20T00:41:56.222Z,29.90
2022-09-20T00:43:46.859Z,30.43
2022-09-20T00:45:29.506Z,31.00
2022-09-20T00:47:03.098Z,36.33
2022-09-20T00:48:35.326Z,29.47
2022-09-20T00:50:45.735Z,32.10
2022-09-20T00:52:20.541Z,29.33
2022-09-20T00:53:58.850Z,29.17
2022-09-20T00:55:33.319Z,29.63
2022-09-20T00:57:05.799Z,30.27
2022-09-20T00:58:46.735Z,34.00
2022-09-20T01:00:19.100Z,29.80
2022-09-20T01:02:12.391Z,28.43
2022-09-20T01:03:46.740Z,30.17
2022-09-20T01:05:20.078Z,28.40
2022-09-20T01:06:57.264Z,30.13
2022-09-20T01:08:30.126Z,31.07
2022-09-20T01:10:02.460Z,28.27
2022-09-20T01:11:36.523Z,33.00
2022-09-20T01:13:09.538Z,34.83
2022-09-20T01:14:44.931Z,33.03
2022-09-20T01:16:19.557Z,29.63
2022-09-20T01:17:55.194Z,30.77
2022-09-20T01:20:01.670Z,27.93
2022-09-20T01:21:34.736Z,30.80
2022-09-20T01:23:35.744Z,31.73
2022-09-20T01:25:35.302Z,32.37
2022-09-20T01:27:50.802Z,27.80
2022-09-20T01:29:47.977Z,27.00
2022-09-20T01:31:25.909Z,29.70
2022-09-20T01:33:22.223Z,28.93
2022-09-20T01:34:59.975Z,28.10
2022-09-20T01:36:43.531Z,26.43
2022-09-20T01:38:56.459Z,24.93
2022-09-20T01:40:40.400Z,22.67
2022-09-20T01:42:14.821Z,27.23
2022-09-20T01:44:01.903Z,26.13
2022-09-20T01:45:34.342Z,25.60
2022-09-20T01:47:22.450Z,23.67
2022-09-20T01:49:06.727Z,24.30
2022-09-20T01:51:00.400Z,23.73
2022-09-20T01:53:28.782Z,25.77
2022-09-20T01:55:58.386Z,23.27
2022-09-20T01:57:49.616Z,20.83
2022-09-20T01:59:59.090Z,23.30
2022-09-20T02:02:31.847Z,21.13
2022-09-20T02:04:33.934Z,20.77
2022-09-20T02:06:54.272Z,24.47
2022-09-20T02:08:47.231Z,24.40
2022-09-20T02:10:46.533Z,23.73
2022-09-20T02:12:33.523Z,22.10
2022-09-20T02:15:07.017Z,22.33
2022-09-20T02:16:53.592Z,22.70
2022-09-20T02:19:05.999Z,23.73
2022-09-20T02:21:11.784Z,23.17
2022-09-20T02:23:16.348Z,23.90
2022-09-20T02:25:02.582Z,23.53
2022-09-20T02:26:59.191Z,24.37
2022-09-20T02:29:01.437Z,23.73
2022-09-20T02:31:06.937Z,24.90
2022-09-20T02:32:58.814Z,23.60
2022-09-20T02:35:12.132Z,23.23
2022-09-20T02:37:29.576Z,22.70
2022-09-20T02:39:20.722Z,24.17
2022-09-20T02:41:17.781Z,23.07
2022-09-20T02:43:02.257Z,25.70
2022-09-20T02:45:03.878Z,24.80
2022-09-20T02:46:39.106Z,25.90
2022-09-20T02:48:16.652Z,25.07
2022-09-20T02:50:23.052Z,21.57
2022-09-20T02:52:20.820Z,26.83
2022-09-20T02:54:06.716Z,25.40
2022-09-20T02:56:17.763Z,24.17
2022-09-20T02:58:20.277Z,23.00
2022-09-20T03:00:26.332Z,24.80
2022-09-20T03:02:08.360Z,23.93
2022-09-20T03:04:29.256Z,23.13
2022-09-20T03:07:09.975Z,24.43
2022-09-20T03:09:29.493Z,24.03
2022-09-20T03:11:44.131Z,28.57
2022-09-20T03:13:59.755Z,26.57
2022-09-20T03:15:51.853Z,24.63
2022-09-20T03:17:58.726Z,24.53
2022-09-20T03:20:21.718Z,23.97
2022-09-20T03:22:43.147Z,27.47
2022-09-20T03:24:36.683Z,26.37
2022-09-20T03:26:42.294Z,26.00
2022-09-20T03:29:00.360Z,26.17
2022-09-20T03:31:12.573Z,26.50
2022-09-20T03:32:57.447Z,29.50
2022-09-20T03:34:36.237Z,30.97
2022-09-20T03:36:42.547Z,26.17
2022-09-20T03:38:55.261Z,26.07
2022-09-20T03:41:05.405Z,25.80
2022-09-20T03:42:48.603Z,25.73
2022-09-20T03:44:43.804Z,23.23
2022-09-20T03:46:33.412Z,26.60
2022-09-20T03:48:53.311Z,29.73
2022-09-20T03:50:28.180Z,25.57
2022-09-20T03:52:26.912Z,25.73
2022-09-20T03:54:44.027Z,26.20
2022-09-20T03:56:39.400Z,26.80
2022-09-20T03:58:43.110Z,28.83
2022-09-20T04:00:50.034Z,26.53
2022-09-20T04:02:25.079Z,25.97
2022-09-20T04:04:25.670Z,27.13
2022-09-20T04:07:14.562Z,28.93
2022-09-20T04:09:30.854Z,27.87
2022-09-20T04:11:40.879Z,26.03
2022-09-20T04:14:01.123Z,28.07
2022-09-20T04:16:39.828Z,27.20
2022-09-20T04:18:59.809Z,29.43
2022-09-20T04:20:53.119Z,25.70
2022-09-20T04:22:29.362Z,28.37
2022-09-20T04:24:29.116Z,26.80
2022-09-20T04:26:03.767Z,26.80
2022-09-20T04:27:58.539Z,30.53
2022-09-20T04:29:38.110Z,27.03
2022-09-20T04:31:41.343Z,30.47
2022-09-20T04:33:28.513Z,30.20
2022-09-20T04:36:13.147Z,26.50
2022-09-20T04:37:47.454Z,26.53
2022-09-20T04:39:42.478Z,27.03
2022-09-20T04:41:42.840Z,24.80
2022-09-20T04:44:04.910Z,27.23
2022-09-20T04:45:51.522Z,26.60
2022-09-20T04:47:48.548Z,28.83
2022-09-20T04:50:06.227Z,24.33
2022-09-20T04:52:06.002Z,28.03
2022-09-20T04:54:03.235Z,27.03
2022-09-20T04:56:01.905Z,24.93
2022-09-20T04:58:00.627Z,22.33
2022-09-20T04:59:55.314Z,23.13
2022-09-20T05:02:08.720Z,22.37
2022-09-20T05:04:22.780Z,25.17
2022-09-20T05:06:46.942Z,23.63
2022-09-20T05:09:05.410Z,23.30
2022-09-20T05:11:17.862Z,23.67
2022-09-20T05:13:10.354Z,25.77
2022-09-20T05:15:08.506Z,23.50
2022-09-20T05:17:12.346Z,24.83
2022-09-20T05:19:02.195Z,23.80
2022-09-20T05:21:04.475Z,22.27
2022-09-20T05:23:32.075Z,22.67
2022-09-20T05:25:57.232Z,21.43
2022-09-20T05:28:02.928Z,24.57
2022-09-20T05:29:53.663Z,19.50
2022-09-20T05:31:50.986Z,24.37
2022-09-20T05:33:48.964Z,19.33
2022-09-20T05:36:14.760Z,22.60
2022-09-20T05:40:50.556Z,20.67
2022-09-20T05:42:55.103Z,21.23
2022-09-20T05:44:56.227Z,18.80
2022-09-20T05:46:37.092Z,21.40
2022-09-20T05:48:38.783Z,18.57
2022-09-20T05:50:53.844Z,21.80
2022-09-20T05:52:50.029Z,23.00
2022-09-20T05:54:58.075Z,17.37
2022-09-20T05:56:55.402Z,17.13
2022-09-20T05:58:45.600Z,17.37
2022-09-20T06:00:22.333Z,17.37
2022-09-20T06:02:50.262Z,17.83
2022-09-20T06:05:24.463Z,14.43
2022-09-20T06:07:18.102Z,16.57
2022-09-20T06:09:35.955Z,15.23
2022-09-20T06:11:59.793Z,16.57
2022-09-20T06:14:15.195Z,14.93
2022-09-20T06:16:04.543Z,16.37
2022-09-20T06:17:57.282Z,18.53
2022-09-20T06:19:46.516Z,17.97
2022-09-20T06:21:37.329Z,16.33
2022-09-20T06:23:10.315Z,18.47
2022-09-20T06:25:15.280Z,18.67
2022-09-20T06:26:52.734Z,20.97
2022-09-20T06:28:34.227Z,19.40
2022-09-20T06:30:32.202Z,21.93
2022-09-20T06:32:04.839Z,18.83
2022-09-20T06:34:13.273Z,23.13
2022-09-20T06:36:19.799Z,27.07
2022-09-20T06:38:25.395Z,23.77
2022-09-20T06:40:58.691Z,19.77
2022-09-20T06:42:31.154Z,22.90
2022-09-20T06:44:05.595Z,19.83
2022-09-20T06:45:37.945Z,23.00
2022-09-20T06:47:15.123Z,24.87
2022-09-20T06:48:49.487Z,18.83
2022-09-20T06:50:22.666Z,19.57
2022-09-20T06:51:55.875Z,19.03
2022-09-20T06:53:32.710Z,18.93
2022-09-20T06:55:07.655Z,16.90
2022-09-20T06:56:40.116Z,18.00
2022-09-20T06:58:12.339Z,18.27
2022-09-20T06:59:45.753Z,16.20
2022-09-20T07:01:29.364Z,16.97
2022-09-20T07:03:02.536Z,20.83
2022-09-20T07:04:35.078Z,15.37
2022-09-20T07:06:08.646Z,14.37
2022-09-20T07:07:41.286Z,14.40
2022-09-20T07:09:13.447Z,13.37
2022-09-20T07:10:45.565Z,13.23
2022-09-20T07:12:18.755Z,13.50
2022-09-20T07:13:54.435Z,14.07
2022-09-20T07:15:29.262Z,14.63
2022-09-20T07:17:01.504Z,15.73
2022-09-20T07:18:34.665Z,14.43
2022-09-20T07:20:07.313Z,13.37
2022-09-20T07:21:39.532Z,12.50
2022-09-20T07:23:11.647Z,9.60
2022-09-20T07:24:44.923Z,8.53
2022-09-20T07:26:28.413Z,9.37
2022-09-20T07:28:00.594Z,7.63
2022-09-20T07:29:35.153Z,7.40
2022-09-20T07:31:07.464Z,7.83
2022-09-20T07:32:41.043Z,7.90
2022-09-20T07:34:13.147Z,9.83
2022-09-20T07:35:46.882Z,7.10
2022-09-20T07:37:19.446Z,8.53
2022-09-20T07:38:53.365Z,7.23
2022-09-20T07:40:26.504Z,8.87
2022-09-20T07:41:58.748Z,7.60
2022-09-20T07:43:31.734Z,7.23
2022-09-20T07:45:04.612Z,6.70
2022-09-20T07:46:39.427Z,7.10
2022-09-20T07:48:11.600Z,7.97
2022-09-20T07:49:43.797Z,9.30
2022-09-20T07:51:16.564Z,8.40
2022-09-20T07:52:48.847Z,8.50
2022-09-20T07:54:21.075Z,7.70
2022-09-20T07:56:06.981Z,7.43
2022-09-20T07:57:39.437Z,7.20
2022-09-20T07:59:13.688Z,8.77
2022-09-20T08:00:52.103Z,6.37
2022-09-20T08:02:24.322Z,6.77
2022-09-20T08:03:57.263Z,6.87
2022-09-20T08:05:29.504Z,7.87
2022-09-20T08:07:01.723Z,6.60
2022-09-20T08:08:36.622Z,7.73
2022-09-20T08:10:09.543Z,7.53
2022-09-20T08:11:43.600Z,9.20
2022-09-20T08:15:11.862Z,6.37
2022-09-20T08:16:50.370Z,6.40
2022-09-20T08:18:22.735Z,7.13
2022-09-20T08:19:54.875Z,7.30
2022-09-20T08:21:31.851Z,6.10
2022-09-20T08:23:23.043Z,6.40
2022-09-20T08:24:56.271Z,5.80
2022-09-20T08:26:31.489Z,6.80
2022-09-20T08:28:03.699Z,6.20
2022-09-20T08:29:36.500Z,6.43
2022-09-20T08:31:19.418Z,7.93
2022-09-20T08:32:55.929Z,9.60
2022-09-20T08:34:28.321Z,6.30
2022-09-20T08:36:00.646Z,7.57
2022-09-20T08:37:32.768Z,8.10
2022-09-20T08:41:06.699Z,6.43
2022-09-20T08:42:44.467Z,6.97
2022-09-20T08:44:28.036Z,6.57
2022-09-20T08:46:05.925Z,8.03
2022-09-20T08:47:56.511Z,6.87
2022-09-20T08:49:31.825Z,6.83
2022-09-20T08:51:08.390Z,6.73
2022-09-20T08:52:44.838Z,9.50
2022-09-20T08:54:17.657Z,6.57
2022-09-20T08:55:50.071Z,7.23
2022-09-20T08:57:22.524Z,5.47
2022-09-20T08:58:57.662Z,6.63
2022-09-20T09:00:33.599Z,7.47
2022-09-20T09:02:17.725Z,6.43
2022-09-20T09:04:18.307Z,6.30
2022-09-20T09:05:58.154Z,5.73
2022-09-20T09:07:31.997Z,6.87
2022-09-20T09:09:04.684Z,5.73
2022-09-20T09:10:43.375Z,8.97
2022-09-20T09:12:26.014Z,6.27
2022-09-20T09:14:32.046Z,6.63
2022-09-20T09:16:22.016Z,6.20
2022-09-20T09:17:54.864Z,5.73
2022-09-20T09:19:33.940Z,6.47
2022-09-20T09:21:10.469Z,6.07
2022-09-20T09:22:46.162Z,8.00
2022-09-20T09:24:20.977Z,6.83
2022-09-20T09:25:55.298Z,6.17
2022-09-20T09:27:27.538Z,9.47
2022-09-20T09:29:24.581Z,7.30
2022-09-20T09:31:33.610Z,5.63
2022-09-20T09:33:28.096Z,6.73
2022-09-20T09:35:31.675Z,6.97
2022-09-20T09:37:04.446Z,6.53
2022-09-20T09:38:40.125Z,7.63
2022-09-20T09:40:19.023Z,6.50
2022-09-20T09:41:51.740Z,5.87
2022-09-20T09:43:30.144Z,7.03
2022-09-20T09:45:27.246Z,7.20
2022-09-20T09:47:00.061Z,6.17
2022-09-20T09:48:32.415Z,6.93
2022-09-20T09:50:09.730Z,7.27
2022-09-20T09:52:05.586Z,7.70
2022-09-20T09:53:39.831Z,6.10
2022-09-20T09:55:14.327Z,4.50
2022-09-20T09:57:01.865Z,6.30
2022-09-20T09:59:14.017Z,7.43
2022-09-20T10:00:48.176Z,5.77
2022-09-20T10:02:51.024Z,5.83
2022-09-20T10:04:33.972Z,6.40
2022-09-20T10:06:39.035Z,5.33
2022-09-20T10:09:04.988Z,6.93
2022-09-20T10:11:16.566Z,6.83
2022-09-20T10:13:21.011Z,7.07
2022-09-20T10:15:34.249Z,8.40
2022-09-20T10:17:52.471Z,7.97
2022-09-20T10:19:42.652Z,6.80
2022-09-20T10:21:48.790Z,7.47
2022-09-20T10:24:05.157Z,10.80
2022-09-20T10:25:53.835Z,6.67
2022-09-20T10:27:56.442Z,9.97
2022-09-20T10:29:49.770Z,8.27
2022-09-20T10:32:18.890Z,7.30
2022-09-20T10:34:56.167Z,10.87
2022-09-20T10:36:53.410Z,9.57
2022-09-20T10:38:37.487Z,7.60
2022-09-20T10:40:15.579Z,8.10
2022-09-20T10:42:48.655Z,7.47
2022-09-20T10:44:41.582Z,7.30
2022-09-20T10:46:51.671Z,7.33
2022-09-20T10:48:26.637Z,7.53
2022-09-20T10:50:20.080Z,8.40
2022-09-20T10:51:55.007Z,6.67
2022-09-20T10:54:03.905Z,7.07
2022-09-20T10:56:24.084Z,6.50
2022-09-20T10:58:15.956Z,8.50
2022-09-20T11:00:20.162Z,6.33
2022-09-20T11:02:04.472Z,8.20
2022-09-20T11:03:57.533Z,7.43
2022-09-20T11:06:06.863Z,9.57
2022-09-20T11:08:13.285Z,5.90
2022-09-20T11:09:55.979Z,8.23
2022-09-20T11:12:09.560Z,7.93
2022-09-20T11:14:04.332Z,6.33
2022-09-20T11:15:47.068Z,6.37
2022-09-20T11:17:31.831Z,7.20
2022-09-20T11:19:32.894Z,7.80
2022-09-20T11:21:25.329Z,7.07
2022-09-20T11:23:29.065Z,7.77
2022-09-20T11:25:21.566Z,6.80
2022-09-20T11:27:20.294Z,7.37
2022-09-20T11:29:20.949Z,5.83
2022-09-20T11:31:14.347Z,7.73
2022-09-20T11:33:18.729Z,10.67
2022-09-20T11:34:55.920Z,7.83
2022-09-20T11:36:57.634Z,7.97
2022-09-20T11:39:01.273Z,6.33
2022-09-20T11:40:45.136Z,5.77
2022-09-20T11:42:24.595Z,7.77
2022-09-20T11:44:10.758Z,6.37
2022-09-20T11:45:47.917Z,7.23
2022-09-20T11:47:53.934Z,6.20
2022-09-20T11:50:10.406Z,7.73
2022-09-20T11:52:23.104Z,7.47
2022-09-20T11:54:16.487Z,6.57
2022-09-20T11:56:21.468Z,7.23
2022-09-20T11:58:22.456Z,5.80
2022-09-20T12:00:05.807Z,7.73
2022-09-20T12:01:43.462Z,6.87
2022-09-20T12:03:38.099Z,8.97
2022-09-20T12:05:37.240Z,5.57
2022-09-20T12:07:42.894Z,6.50
2022-09-20T12:09:41.139Z,6.57
2022-09-20T12:11:16.216Z,9.07
2022-09-20T12:12:57.510Z,5.50
2022-09-20T12:14:32.414Z,8.27
2022-09-20T12:16:13.580Z,5.83
2022-09-20T12:17:48.485Z,5.00
2022-09-20T12:19:33.264Z,5.50
2022-09-20T12:21:16.555Z,5.70
2022-09-20T12:22:48.955Z,6.80
2022-09-20T12:24:22.419Z,6.77
2022-09-20T12:26:13.479Z,7.40
2022-09-20T12:28:15.115Z,7.73
2022-09-20T12:29:51.034Z,7.50
2022-09-20T12:31:38.404Z,6.40
2022-09-20T12:33:22.148Z,6.00
2022-09-20T12:34:54.326Z,5.53
2022-09-20T12:36:39.366Z,6.00
2022-09-20T12:38:31.939Z,8.37
2022-09-20T12:40:05.375Z,5.80
2022-09-20T12:41:56.174Z,5.40
2022-09-20T12:43:33.059Z,5.20
2022-09-20T12:45:17.634Z,6.60
2022-09-20T12:47:12.802Z,7.77
2022-09-20T12:48:45.587Z,4.83
2022-09-20T12:50:36.308Z,7.80
2022-09-20T12:52:57.050Z,6.43
2022-09-20T12:54:30.049Z,7.60
2022-09-20T12:56:02.092Z,5.43
2022-09-20T12:57:35.577Z,5.73
2022-09-20T12:59:31.129Z,5.60
2022-09-20T13:01:03.390Z,9.17
2022-09-20T13:02:52.027Z,5.83
2022-09-20T13:04:56.120Z,5.13
2022-09-20T13:06:28.491Z,6.83
2022-09-20T13:08:20.694Z,5.63
2022-09-20T13:09:54.401Z,6.00
2022-09-20T13:11:54.568Z,6.07
2022-09-20T13:13:54.551Z,7.53
2022-09-20T13:15:27.471Z,5.93
2022-09-20T13:17:06.974Z,4.97
2022-09-20T13:18:41.199Z,6.47
2022-09-20T13:20:31.509Z,6.30
2022-09-20T13:22:17.984Z,7.17
2022-09-20T13:23:54.207Z,8.73
2022-09-20T13:25:28.548Z,5.87
2022-09-20T13:27:08.893Z,4.67
2022-09-20T13:28:51.588Z,7.53
2022-09-20T13:30:35.280Z,5.57
2022-09-20T13:32:29.983Z,5.63
2022-09-20T13:34:21.910Z,5.40
2022-09-20T13:35:58.756Z,5.27
2022-09-20T13:37:31.194Z,5.80
2022-09-20T13:39:07.652Z,6.93
2022-09-20T13:40:43.683Z,8.57
2022-09-20T13:42:21.587Z,8.00
2022-09-20T13:43:53.892Z,6.23
2022-09-20T13:45:28.835Z,4.57
2022-09-20T13:47:30.045Z,6.93
2022-09-20T13:49:23.839Z,6.03
2022-09-20T13:50:57.551Z,4.80
2022-09-20T13:52:32.001Z,4.67
2022-09-20T13:54:33.064Z,6.97
2022-09-20T13:56:31.601Z,4.77
2022-09-20T13:58:27.969Z,6.33
2022-09-20T14:00:01.737Z,5.30
2022-09-20T14:01:37.175Z,5.10
2022-09-20T14:03:20.104Z,4.30
2022-09-20T14:04:56.643Z,5.23
2022-09-20T14:06:29.783Z,4.83
2022-09-20T14:08:03.187Z,6.20
2022-09-20T14:09:39.475Z,4.23
2022-09-20T14:11:31.137Z,6.57
2022-09-20T14:13:11.569Z,5.57
2022-09-20T14:14:48.270Z,6.00
2022-09-20T14:16:24.485Z,4.97
2022-09-20T14:17:57.592Z,4.90
2022-09-20T14:19:37.297Z,4.53
2022-09-20T14:21:12.012Z,7.50
2022-09-20T14:22:44.859Z,8.13
2022-09-20T14:24:17.522Z,6.60
2022-09-20T14:26:16.122Z,13.57
2022-09-20T14:27:48.466Z,12.93
2022-09-20T14:29:42.221Z,6.77
2022-09-20T14:31:19.203Z,6.23
2022-09-20T14:32:56.139Z,6.93
2022-09-20T14:34:28.734Z,6.23
2022-09-20T14:36:01.448Z,5.90
2022-09-20T14:37:52.039Z,8.00
2022-09-20T14:39:24.403Z,4.83
2022-09-20T14:40:56.815Z,7.87
2022-09-20T14:42:54.974Z,5.90
2022-09-20T14:44:33.161Z,6.00
2022-09-20T14:46:17.213Z,5.83
2022-09-20T14:47:58.150Z,8.53
2022-09-20T14:49:33.164Z,5.23
2022-09-20T14:51:22.120Z,6.10
2022-09-20T14:53:12.792Z,5.47
2022-09-20T14:55:11.491Z,8.57
2022-09-20T14:56:50.985Z,6.73
2022-09-20T14:58:24.810Z,6.03
2022-09-20T14:59:57.365Z,6.53
2022-09-20T15:01:29.798Z,6.67
2022-09-20T15:03:12.777Z,6.33
2022-09-20T15:05:00.278Z,9.60
2022-09-20T15:06:37.703Z,23.20
2022-09-20T15:08:15.519Z,36.13
2022-09-20T15:09:49.383Z,32.17
2022-09-20T15:11:21.570Z,39.83
2022-09-20T15:12:54.112Z,17.23
2022-09-20T15:14:26.268Z,11.13
2022-09-20T15:15:59.377Z,9.07
2022-09-20T15:17:31.921Z,9.37
2022-09-20T15:19:06.176Z,12.33
2022-09-20T15:20:38.468Z,11.90
2022-09-20T15:22:11.944Z,11.03
2022-09-20T15:23:44.142Z,10.27
2022-09-20T15:25:21.270Z,9.70
2022-09-20T15:26:54.144Z,14.57
2022-09-20T15:28:27.857Z,9.90
2022-09-20T15:29:59.993Z,9.63
2022-09-20T15:31:32.388Z,11.30
2022-09-20T15:33:04.646Z,9.90
2022-09-20T15:34:36.823Z,10.80
2022-09-20T15:36:10.192Z,12.67
2022-09-20T15:37:42.563Z,13.10
2022-09-20T15:39:15.183Z,10.67
2022-09-20T15:40:49.621Z,11.93
2022-09-20T15:42:23.820Z,9.87
2022-09-20T15:43:56.159Z,18.53
2022-09-20T15:45:29.207Z,15.03
2022-09-20T15:47:03.127Z,14.23
2022-09-20T15:48:38.079Z,10.70
2022-09-20T15:50:10.951Z,11.13
2022-09-20T15:51:43.171Z,22.10
2022-09-20T15:53:15.274Z,26.23
2022-09-20T15:54:47.783Z,27.93
2022-09-20T15:56:30.432Z,29.40
2022-09-20T15:58:03.915Z,44.37
2022-09-20T15:59:36.426Z,34.43
2022-09-20T16:01:10.245Z,35.57
2022-09-20T16:02:42.769Z,23.63
2022-09-20T16:04:20.646Z,16.17
2022-09-20T16:06:07.377Z,20.53
2022-09-20T16:07:39.744Z,19.40
2022-09-20T16:09:12.904Z,16.53
2022-09-20T16:10:56.068Z,12.70
2022-09-20T16:12:28.505Z,11.37
2022-09-20T16:14:01.904Z,14.13
2022-09-20T16:15:34.603Z,13.20
2022-09-20T16:17:06.907Z,11.10
2022-09-20T16:18:58.286Z,12.93
2022-09-20T16:20:30.586Z,13.40
2022-09-20T16:22:02.731Z,15.03
2022-09-20T16:23:37.471Z,15.53
2022-09-20T16:25:09.760Z,14.70
2022-09-20T16:26:43.232Z,14.50
2022-09-20T16:28:15.381Z,14.23
2022-09-20T16:29:47.522Z,14.67
2022-09-20T16:31:35.381Z,19.93
2022-09-20T16:33:11.892Z,14.93
2022-09-20T16:34:44.633Z,16.03
2022-09-20T16:36:18.372Z,16.47
2022-09-20T16:37:50.952Z,16.10
2022-09-20T16:39:27.670Z,17.87
2022-09-20T16:41:01.796Z,17.20
2022-09-20T16:42:33.995Z,17.73
2022-09-20T16:44:07.213Z,19.33
2022-09-20T16:45:39.851Z,17.13
2022-09-20T16:47:21.907Z,17.67
2022-09-20T16:48:56.909Z,25.87
2022-09-20T16:50:29.925Z,22.97
2022-09-20T16:52:09.823Z,23.30
2022-09-20T16:53:43.519Z,18.00
2022-09-20T16:55:16.162Z,16.53
2022-09-20T16:56:50.755Z,17.33
2022-09-20T16:58:30.612Z,15.73
2022-09-20T17:00:03.834Z,25.17
2022-09-20T17:01:37.623Z,27.53
2022-09-20T17:03:09.826Z,33.33
2022-09-20T17:04:44.050Z,30.10
2022-09-20T17:06:17.151Z,35.60
2022-09-20T17:07:49.378Z,18.87
2022-09-20T17:09:22.046Z,61.83
2022-09-20T17:11:01.575Z,55.43
2022-09-20T17:12:34.508Z,21.73
2022-09-20T17:14:09.565Z,27.17
2022-09-20T17:15:41.751Z,31.83
2022-09-20T17:17:14.037Z,36.60
2022-09-20T17:18:46.798Z,56.10
2022-09-20T17:20:19.133Z,34.07
2022-09-20T17:21:51.649Z,26.93
2022-09-20T17:23:24.372Z,23.83
2022-09-20T17:24:56.512Z,39.50
2022-09-20T17:26:33.250Z,26.03
2022-09-20T17:28:05.679Z,32.60
2022-09-20T17:29:38.557Z,24.77
2022-09-20T17:31:14.614Z,62.03
2022-09-20T17:32:50.395Z,69.83
2022-09-20T17:34:24.600Z,77.70
2022-09-20T17:36:00.220Z,78.40
2022-09-20T17:37:32.464Z,51.43
2022-09-20T17:39:05.598Z,29.37
2022-09-20T17:40:38.551Z,35.17
2022-09-20T17:42:10.948Z,53.03
2022-09-20T17:43:45.012Z,47.87
2022-09-20T17:45:18.143Z,37.70
2022-09-20T17:46:54.063Z,55.77
2022-09-20T17:48:26.603Z,28.90
2022-09-20T17:49:58.772Z,31.43
2022-09-20T17:51:55.282Z,26.27
2022-09-20T17:53:27.993Z,46.20
2022-09-20T17:55:00.167Z,24.13
2022-09-20T17:56:33.403Z,25.07
2022-09-20T17:58:05.950Z,19.10
2022-09-20T17:59:38.440Z,25.43
2022-09-20T18:01:14.221Z,21.07
2022-09-20T18:02:46.516Z,47.03
2022-09-20T18:04:20.970Z,109.27
2022-09-20T18:05:54.132Z,44.13
2022-09-20T18:07:26.381Z,37.17
2022-09-20T18:09:05.691Z,29.03
2022-09-20T18:10:38.026Z,55.17
2022-09-20T18:12:13.936Z,41.80
2022-09-20T18:13:49.780Z,52.27
2022-09-20T18:15:23.615Z,36.80
2022-09-20T18:17:01.171Z,24.27
2022-09-20T18:18:34.371Z,24.60
2022-09-20T18:20:07.547Z,35.37
2022-09-20T18:21:40.953Z,30.47
2022-09-20T18:23:13.239Z,23.97
2022-09-20T18:24:45.695Z,23.37
2022-09-20T18:26:24.366Z,23.03
2022-09-20T18:27:56.684Z,24.17
2022-09-20T18:29:29.432Z,29.90
2022-09-20T18:31:03.967Z,29.60
2022-09-20T18:32:36.636Z,34.57
2022-09-20T18:34:17.861Z,34.23
2022-09-20T18:35:50.080Z,77.97
2022-09-20T18:37:22.456Z,51.93
2022-09-20T18:38:55.422Z,148.70
2022-09-20T18:40:29.705Z,47.07
2022-09-20T18:42:03.860Z,45.10
2022-09-20T18:43:37.816Z,37.37
2022-09-20T18:45:10.567Z,33.13
2022-09-20T18:46:43.039Z,41.27
2022-09-20T18:48:15.201Z,38.80
2022-09-20T18:49:47.618Z,40.00
2022-09-20T18:51:21.644Z,34.27
2022-09-20T18:52:53.819Z,37.83
2022-09-20T18:54:26.977Z,41.97
2022-09-20T18:56:26.490Z,36.83
2022-09-20T18:58:01.691Z,36.27
2022-09-20T18:59:34.373Z,38.57
2022-09-20T19:01:49.361Z,32.97
2022-09-20T19:03:45.114Z,31.93
2022-09-20T19:05:43.524Z,24.20
2022-09-20T19:07:27.469Z,25.07
2022-09-20T19:09:39.850Z,20.97
2022-09-20T19:11:29.717Z,20.13
2022-09-20T19:13:20.144Z,22.03
2022-09-20T19:15:09.092Z,20.33
2022-09-20T19:16:41.896Z,18.60
2022-09-20T19:18:58.896Z,19.43
2022-09-20T19:20:37.944Z,22.63
2022-09-20T19:22:50.963Z,51.83
2022-09-20T19:25:13.502Z,27.03
2022-09-20T19:26:46.072Z,21.00
2022-09-20T19:28:19.508Z,42.53
2022-09-20T19:29:52.770Z,29.93
2022-09-20T19:31:33.885Z,62.83
2022-09-20T19:33:15.676Z,45.53
2022-09-20T19:34:52.883Z,31.73
2022-09-20T19:37:26.789Z,36.23
2022-09-20T19:39:36.679Z,70.40
2022-09-20T19:41:32.138Z,52.30
2022-09-20T19:43:42.135Z,44.77
2022-09-20T19:45:31.663Z,22.90
2022-09-20T19:47:36.218Z,31.83
2022-09-20T19:49:30.775Z,17.23
2022-09-20T19:51:10.319Z,14.43
2022-09-20T19:52:44.526Z,14.23
2022-09-20T19:54:17.341Z,17.53
2022-09-20T19:56:03.564Z,18.10
2022-09-20T19:57:44.163Z,21.67
2022-09-20T19:59:17.376Z,22.57
2022-09-20T20:00:50.475Z,28.87
2022-09-20T20:02:23.155Z,25.77
2022-09-20T20:03:55.881Z,21.80
2022-09-20T20:05:29.201Z,19.40
2022-09-20T20:07:30.002Z,22.73
2022-09-20T20:09:14.408Z,20.60
2022-09-20T20:11:20.915Z,26.17
2022-09-20T20:13:42.876Z,19.87
2022-09-20T20:15:22.002Z,17.00
2022-09-20T20:17:29.794Z,18.70
2022-09-20T20:19:34.526Z,16.33
2022-09-20T20:21:31.207Z,16.90
2022-09-20T20:23:33.595Z,18.03
2022-09-20T20:25:40.844Z,15.57
2022-09-20T20:27:13.085Z,16.03
2022-09-20T20:28:45.406Z,14.77
2022-09-20T20:30:19.419Z,19.00
2022-09-20T20:31:51.555Z,15.63
2022-09-20T20:33:23.652Z,16.20
2022-09-20T20:34:55.751Z,17.97
2022-09-20T20:36:28.089Z,18.80
2022-09-20T20:38:00.238Z,16.53
2022-09-20T20:39:32.950Z,20.93
2022-09-20T20:41:09.811Z,22.17
2022-09-20T20:42:45.553Z,26.60
2022-09-20T20:44:17.917Z,25.97
2022-09-20T20:45:51.151Z,23.63
2022-09-20T20:47:23.491Z,24.80
2022-09-20T20:48:56.291Z,22.87
2022-09-20T20:50:29.586Z,20.70
2022-09-20T20:52:04.866Z,16.73
2022-09-20T20:53:40.739Z,17.77
2022-09-20T20:55:13.538Z,14.73
2022-09-20T20:56:45.668Z,16.60
2022-09-20T20:58:17.857Z,13.53
2022-09-20T20:59:49.935Z,13.00
2022-09-20T21:01:35.932Z,15.13
2022-09-20T21:03:11.024Z,13.37
2022-09-20T21:04:43.237Z,14.97
2022-09-20T21:06:17.105Z,14.83
2022-09-20T21:07:52.548Z,14.43
2022-09-20T21:09:25.039Z,16.03
2022-09-20T21:11:02.908Z,14.63
2022-09-20T21:12:35.068Z,14.77
2022-09-20T21:14:07.777Z,12.93
2022-09-20T21:15:41.512Z,14.80
2022-09-20T21:17:13.783Z,15.77
2022-09-20T21:18:48.726Z,15.37
2022-09-20T21:20:21.867Z,14.70
2022-09-20T21:21:54.325Z,15.97
2022-09-20T21:23:26.963Z,13.10
2022-09-20T21:24:59.066Z,14.33
2022-09-20T21:26:35.294Z,14.13
2022-09-20T21:28:07.419Z,16.80
2022-09-20T21:29:39.609Z,16.73
2022-09-20T21:31:13.517Z,14.07
2022-09-20T21:32:45.915Z,12.27
2022-09-20T21:34:18.107Z,12.87
2022-09-20T21:35:50.314Z,15.53
2022-09-20T21:37:22.515Z,16.33
2022-09-20T21:38:55.422Z,15.10
2022-09-20T21:40:27.655Z,14.77
2022-09-20T21:41:59.898Z,14.43
2022-09-20T21:43:32.663Z,13.97
2022-09-20T21:45:09.882Z,12.80
2022-09-20T21:46:42.448Z,16.07
2022-09-20T21:48:14.841Z,15.70
2022-09-20T21:49:47.666Z,13.97
2022-09-20T21:51:21.544Z,12.83
2022-09-20T21:52:54.368Z,13.63
2022-09-20T21:54:26.542Z,14.20
2022-09-20T21:56:01.151Z,13.73
2022-09-20T21:57:33.528Z,14.43
2022-09-20T21:59:07.686Z,14.27
2022-09-20T22:00:40.698Z,15.17
2022-09-20T22:02:13.298Z,13.90
2022-09-20T22:04:01.992Z,19.07
2022-09-20T22:05:34.445Z,15.27
2022-09-20T22:07:06.886Z,18.03
2022-09-20T22:08:49.293Z,18.47
2022-09-20T22:10:22.472Z,15.23
2022-09-20T22:11:54.780Z,17.30
2022-09-20T22:13:26.992Z,16.07
2022-09-20T22:14:59.161Z,15.60
2022-09-20T22:16:34.233Z,16.17
2022-09-20T22:18:06.384Z,18.37
2022-09-20T22:19:39.988Z,17.20
2022-09-20T22:21:18.182Z,16.00
2022-09-20T22:22:50.506Z,16.43
2022-09-20T22:24:22.630Z,14.47
2022-09-20T22:26:04.709Z,14.17
2022-09-20T22:27:37.013Z,14.23
2022-09-20T22:29:10.353Z,14.60
2022-09-20T22:30:42.529Z,12.73
2022-09-20T22:32:14.855Z,14.53
2022-09-20T22:33:50.945Z,13.83
2022-09-20T22:35:23.359Z,13.50
2022-09-20T22:36:55.673Z,13.83
2022-09-20T22:38:31.446Z,16.83
2022-09-20T22:40:04.435Z,51.57
2022-09-20T22:41:38.866Z,33.80
2022-09-20T22:43:10.979Z,120.93
2022-09-20T22:44:43.092Z,114.87
2022-09-20T22:46:22.226Z,125.23
2022-09-20T22:47:54.730Z,70.90